Time;durP1;ratioP1;P1;durP2;ratioP2;P2;SDS_P1;SDS_P2;PMS_P1;PMS_P2;Temp;Humidity;BMP_temperature;BMP_pressure;BME280_temperature;BME280_humidity;BME280_pressure;Samples;Min_cycle;Max_cycle;Signal;HPM_P1;HPM_P2
2022/09/11 00:02:00;;;;;;;43.35;39.10;;;32.00;63.00;;;;;;4998442;28;20286;-93
2022/09/11 00:04:32;;;;;;;41.50;37.60;;;31.80;63.50;;;;;;4992435;28;20222;-92
2022/09/11 00:09:48;;;;;;;40.35;36.50;;;31.20;64.40;;;;;;5124971;23;20241;-93
2022/09/11 00:12:20;;;;;;;41.72;37.58;;;31.10;63.20;;;;;;5001449;28;20213;-94
2022/09/11 00:14:52;;;;;;;40.38;36.83;;;31.00;63.50;;;;;;5003448;28;20216;-94
2022/09/11 00:20:01;;;;;;;43.33;39.10;;;30.80;61.90;;;;;;5010497;23;20239;-94
2022/09/11 00:25:47;;;;;;;41.70;37.85;;;30.60;63.10;;;;;;4992276;28;20211;-93
2022/09/11 00:28:40;;;;;;;41.72;37.80;;;30.50;64.70;;;;;;4993883;28;20298;-93
2022/09/11 00:31:15;;;;;;;42.08;38.08;;;30.40;66.30;;;;;;4994747;28;20219;-94
2022/09/11 00:36:40;;;;;;;42.33;38.03;;;30.20;64.60;;;;;;4999195;28;20202;-92
2022/09/11 00:39:17;;;;;;;39.65;36.05;;;30.10;64.70;;;;;;4982938;28;20206;-93
2022/09/11 00:41:54;;;;;;;42.28;38.58;;;30.00;65.60;;;;;;4997925;28;20226;-93
2022/09/11 00:45:01;;;;;;;41.17;37.45;;;29.90;65.10;;;;;;4992080;28;20218;-93
2022/09/11 00:50:30;;;;;;;43.13;38.92;;;29.50;67.30;;;;;;4992691;28;20602;-92
2022/09/11 00:53:17;;;;;;;43.35;39.30;;;29.30;69.30;;;;;;4991321;28;20214;-93
2022/09/11 00:55:56;;;;;;;42.22;38.25;;;29.10;69.00;;;;;;4991196;28;20230;-94
2022/09/11 00:58:32;;;;;;;43.75;39.17;;;28.80;69.50;;;;;;4991241;28;20278;-93
2022/09/11 01:01:06;;;;;;;47.28;42.55;;;28.60;71.50;;;;;;4991013;28;20302;-94
2022/09/11 01:03:51;;;;;;;42.92;38.53;;;28.40;71.70;;;;;;4982983;28;20213;-93
2022/09/11 01:09:22;;;;;;;42.15;38.22;;;28.10;73.90;;;;;;5005754;28;20304;-93
2022/09/11 01:12:05;;;;;;;44.90;40.60;;;27.90;72.60;;;;;;5004492;28;20206;-94
2022/09/11 01:14:51;;;;;;;43.38;39.25;;;27.80;73.60;;;;;;5010554;28;20297;-94
2022/09/11 01:17:37;;;;;;;45.67;41.33;;;27.60;76.00;;;;;;5009454;28;20266;-94
2022/09/11 01:20:35;;;;;;;44.87;40.40;;;27.40;75.90;;;;;;5004437;28;20234;-94
2022/09/11 01:26:36;;;;;;;48.07;43.17;;;27.10;77.00;;;;;;5214347;23;20234;-93
2022/09/11 01:29:17;;;;;;;49.27;44.10;;;26.90;76.60;;;;;;5008159;28;20273;-94
2022/09/11 01:32:00;;;;;;;48.93;44.20;;;26.80;78.40;;;;;;5008869;28;20249;-93
2022/09/11 01:34:41;;;;;;;46.10;41.70;;;26.50;78.60;;;;;;5007847;28;20278;-93
2022/09/11 01:37:20;;;;;;;46.17;41.67;;;26.40;80.30;;;;;;5003466;28;20226;-92
2022/09/11 01:42:53;;;;;;;48.67;43.53;;;26.10;81.70;;;;;;5006147;28;20203;-93
2022/09/11 01:45:30;;;;;;;49.37;44.63;;;25.90;81.80;;;;;;5000038;28;20226;-91
2022/09/11 01:48:08;;;;;;;49.27;44.23;;;25.80;82.10;;;;;;5012090;28;20198;-93
2022/09/11 01:56:07;;;;;;;49.03;43.83;;;25.20;85.40;;;;;;5049890;28;20212;-93
2022/09/11 01:58:50;;;;;;;49.03;44.13;;;25.10;86.60;;;;;;5049166;28;20236;-94
2022/09/11 02:04:36;;;;;;;48.80;43.60;;;24.80;87.90;;;;;;5048805;28;20223;-94
2022/09/11 02:07:50;;;;;;;47.87;42.90;;;24.60;89.00;;;;;;5051320;28;20188;-94
2022/09/11 02:13:47;;;;;;;48.60;43.67;;;24.30;90.00;;;;;;5062275;23;20268;-94
2022/09/11 02:16:29;;;;;;;47.77;43.07;;;24.20;90.40;;;;;;5006272;28;20685;-94
2022/09/11 02:19:16;;;;;;;49.07;43.83;;;24.00;90.90;;;;;;5090463;23;20246;-94
2022/09/11 02:22:05;;;;;;;46.00;41.67;;;23.90;92.50;;;;;;5007615;28;20257;-92
2022/09/11 02:24:48;;;;;;;45.23;40.97;;;23.60;93.60;;;;;;5155616;23;20252;-92
2022/09/11 02:27:37;;;;;;;46.33;41.80;;;23.40;95.10;;;;;;5100844;23;20261;-93
2022/09/11 02:33:06;;;;;;;46.70;42.17;;;23.00;94.30;;;;;;5046803;26;20224;-93
2022/09/11 02:35:54;;;;;;;47.20;42.40;;;22.90;94.70;;;;;;5051074;28;20303;-94
2022/09/11 02:38:39;;;;;;;44.87;40.23;;;22.80;95.30;;;;;;5040902;28;20236;-93
2022/09/11 02:41:30;;;;;;;44.90;40.67;;;22.70;95.60;;;;;;5030225;28;20273;-93
2022/09/11 02:44:24;;;;;;;45.10;40.77;;;22.60;95.80;;;;;;5022650;28;20205;-93
2022/09/11 02:47:07;;;;;;;46.07;41.30;;;22.50;96.10;;;;;;5025561;28;20213;-93
2022/09/11 02:49:52;;;;;;;44.77;40.30;;;22.40;96.60;;;;;;5024500;28;20229;-93
2022/09/11 02:52:37;;;;;;;44.23;39.87;;;22.30;96.80;;;;;;5026545;28;20264;-93
2022/09/11 02:55:40;;;;;;;43.63;39.23;;;22.30;97.20;;;;;;5030208;28;20201;-93
2022/09/11 03:00:49;;;;;;;45.23;40.93;;;22.10;98.10;;;;;;5088760;23;20252;-91
2022/09/11 03:03:22;;;;;;;46.57;41.50;;;22.00;98.30;;;;;;5009967;28;20249;-94
2022/09/11 03:05:55;;;;;;;44.13;39.80;;;21.90;98.60;;;;;;5006538;28;20210;-94
2022/09/11 03:11:25;;;;;;;47.93;39.93;;;21.80;99.30;;;;;;5011916;28;20553;-94
2022/09/11 03:14:01;;;;;;;44.10;39.57;;;21.70;99.30;;;;;;5010169;28;20186;-94
2022/09/11 03:16:38;;;;;;;43.63;39.50;;;21.70;99.50;;;;;;5009284;28;20213;-94
2022/09/11 03:19:11;;;;;;;42.07;37.97;;;21.60;99.90;;;;;;5009643;28;20210;-94
2022/09/11 03:21:50;;;;;;;43.10;38.60;;;21.60;99.90;;;;;;5006637;28;20226;-94
2022/09/11 03:24:30;;;;;;;42.57;38.37;;;21.50;99.90;;;;;;5009854;28;20240;-94
2022/09/11 03:27:09;;;;;;;43.17;38.80;;;21.50;99.90;;;;;;5003299;28;20224;-94
2022/09/11 03:29:41;;;;;;;43.77;39.03;;;21.50;99.90;;;;;;5009966;28;20236;-94
2022/09/11 03:32:13;;;;;;;41.87;37.50;;;21.40;99.90;;;;;;5009871;28;20233;-94
2022/09/11 03:34:46;;;;;;;43.57;39.07;;;21.30;99.90;;;;;;5012754;28;20227;-93
2022/09/11 03:37:20;;;;;;;43.13;38.87;;;21.30;99.90;;;;;;5014820;28;20229;-94
2022/09/11 03:40:04;;;;;;;44.83;40.40;;;21.20;99.90;;;;;;5016717;28;20190;-94
2022/09/11 03:42:36;;;;;;;42.70;38.17;;;21.10;99.90;;;;;;5019595;28;20231;-93
2022/09/11 03:45:09;;;;;;;42.60;38.20;;;21.10;99.90;;;;;;5019406;28;20187;-93
2022/09/11 03:47:41;;;;;;;41.13;36.80;;;21.00;99.90;;;;;;5017549;28;20210;-94
2022/09/11 03:50:26;;;;;;;40.73;36.73;;;21.00;99.90;;;;;;5018933;28;20229;-94
2022/09/11 03:53:02;;;;;;;40.53;36.37;;;20.90;99.90;;;;;;5003082;28;20246;-92
2022/09/11 03:55:54;;;;;;;42.13;38.13;;;20.80;99.90;;;;;;4995129;28;20218;-93
2022/09/11 03:58:39;;;;;;;39.83;35.93;;;20.80;99.90;;;;;;4996941;28;20237;-94
2022/09/11 04:01:12;;;;;;;41.57;37.17;;;20.70;99.90;;;;;;4992935;28;20222;-94
2022/09/11 04:03:46;;;;;;;40.97;36.53;;;20.70;99.90;;;;;;4993934;28;20226;-94
2022/09/11 04:09:21;;;;;;;38.77;34.90;;;20.50;99.90;;;;;;5042271;23;20245;-94
2022/09/11 04:11:54;;;;;;;40.73;33.63;;;20.50;99.90;;;;;;5000764;28;20688;-94
2022/09/11 04:14:25;;;;;;;37.93;34.07;;;20.50;99.90;;;;;;5001227;28;20670;-94
2022/09/11 04:17:00;;;;;;;37.50;33.70;;;20.40;99.90;;;;;;5001805;28;20324;-94
2022/09/11 04:19:32;;;;;;;36.93;33.30;;;20.30;99.90;;;;;;5002329;28;20202;-95
2022/09/11 04:22:08;;;;;;;35.57;31.93;;;20.30;99.90;;;;;;5009142;28;20187;-95
2022/09/11 04:24:45;;;;;;;36.03;31.97;;;20.20;99.90;;;;;;5010402;28;20305;-94
2022/09/11 04:27:24;;;;;;;33.93;30.23;;;20.20;99.90;;;;;;5011665;28;20237;-92
2022/09/11 04:29:56;;;;;;;34.80;31.10;;;20.10;99.90;;;;;;5012801;28;20241;-92
2022/09/11 04:32:30;;;;;;;32.97;29.77;;;20.10;99.90;;;;;;5012577;28;20324;-92
2022/09/11 04:35:02;;;;;;;31.73;28.43;;;20.10;99.90;;;;;;5006374;28;20217;-93
2022/09/11 04:37:34;;;;;;;31.47;28.30;;;20.10;99.90;;;;;;5009503;28;20226;-94
2022/09/11 04:40:07;;;;;;;32.87;29.33;;;20.10;99.90;;;;;;5008795;28;20218;-93
2022/09/11 04:42:42;;;;;;;31.53;28.23;;;20.10;99.90;;;;;;5006659;28;20269;-93
2022/09/11 04:45:14;;;;;;;30.53;27.23;;;20.00;99.90;;;;;;5008698;28;20293;-94
2022/09/11 04:47:45;;;;;;;31.93;28.67;;;20.00;99.90;;;;;;5008627;28;20230;-92
2022/09/11 04:50:19;;;;;;;33.60;28.53;;;20.00;99.90;;;;;;5015044;28;20264;-92
2022/09/11 04:52:53;;;;;;;32.33;28.10;;;20.00;99.90;;;;;;5014814;28;20278;-93
2022/09/11 04:55:24;;;;;;;30.33;27.13;;;20.00;99.90;;;;;;5008311;28;20285;-93
2022/09/11 04:57:58;;;;;;;32.90;27.87;;;20.00;99.90;;;;;;5000530;28;20229;-92
2022/09/11 05:00:29;;;;;;;31.23;28.03;;;19.90;99.90;;;;;;5000027;28;20234;-93
2022/09/11 05:03:01;;;;;;;33.67;28.30;;;19.90;99.80;;;;;;4999943;28;20198;-92
2022/09/11 05:05:32;;;;;;;32.23;28.00;;;19.90;99.90;;;;;;5000699;28;20261;-92
2022/09/11 05:08:04;;;;;;;32.10;28.70;;;19.80;99.90;;;;;;5003826;28;20210;-93
2022/09/11 05:10:39;;;;;;;31.40;28.13;;;19.80;99.90;;;;;;5011228;28;20241;-91
2022/09/11 05:13:14;;;;;;;34.87;29.07;;;19.70;99.90;;;;;;5016770;28;20193;-91
2022/09/11 05:15:50;;;;;;;31.23;27.67;;;19.70;99.90;;;;;;5014040;28;20236;-92
2022/09/11 05:18:22;;;;;;;34.87;28.53;;;19.60;99.90;;;;;;5013897;28;20296;-93
2022/09/11 05:21:01;;;;;;;39.03;29.23;;;19.50;99.90;;;;;;5002026;28;20234;-93
2022/09/11 05:23:33;;;;;;;39.30;29.27;;;19.50;99.90;;;;;;5001138;28;20715;-92
2022/09/11 05:26:05;;;;;;;34.47;27.23;;;19.40;99.90;;;;;;5003069;28;20225;-92
2022/09/11 05:28:41;;;;;;;34.43;28.33;;;19.30;99.90;;;;;;5001756;28;20210;-92
2022/09/11 05:31:14;;;;;;;31.40;27.13;;;19.30;99.90;;;;;;4999648;28;20241;-93
2022/09/11 05:33:49;;;;;;;37.57;29.27;;;19.20;99.90;;;;;;5000199;28;20206;-92
2022/09/11 05:36:23;;;;;;;31.73;28.03;;;19.20;99.90;;;;;;5002705;28;20220;-92
2022/09/11 05:38:54;;;;;;;34.77;28.13;;;19.20;99.90;;;;;;5002334;28;20230;-93
2022/09/11 05:41:26;;;;;;;33.33;28.27;;;19.20;99.90;;;;;;5012709;28;20229;-93
2022/09/11 05:43:59;;;;;;;33.27;28.03;;;19.10;99.90;;;;;;5017144;28;20262;-91
2022/09/11 05:46:31;;;;;;;33.33;27.57;;;19.10;99.90;;;;;;5014912;28;20241;-92
2022/09/11 05:49:02;;;;;;;31.90;28.10;;;19.10;99.90;;;;;;5013608;28;20213;-92
2022/09/11 05:51:36;;;;;;;32.23;27.83;;;19.00;99.90;;;;;;5001521;28;20660;-92
2022/09/11 05:54:08;;;;;;;35.90;28.60;;;19.00;99.90;;;;;;4998810;28;20218;-92
2022/09/11 05:56:40;;;;;;;31.97;28.43;;;19.00;99.90;;;;;;4999198;28;20224;-92
2022/09/11 05:59:16;;;;;;;31.77;26.83;;;19.00;99.90;;;;;;4999020;28;20659;-92
2022/09/11 06:01:47;;;;;;;33.43;28.27;;;18.90;99.90;;;;;;4998400;28;20228;-92
2022/09/11 06:04:19;;;;;;;34.27;28.07;;;18.90;99.90;;;;;;4998202;28;20222;-92
2022/09/11 06:06:50;;;;;;;33.10;27.47;;;18.80;99.90;;;;;;4998842;28;20301;-92
2022/09/11 06:09:22;;;;;;;38.10;28.50;;;18.80;99.90;;;;;;4999548;28;20210;-92
2022/09/11 06:11:55;;;;;;;38.20;29.90;;;18.70;99.90;;;;;;4996770;28;20240;-92
2022/09/11 06:14:28;;;;;;;37.03;29.37;;;18.70;99.90;;;;;;4998012;28;20210;-92
2022/09/11 06:16:59;;;;;;;35.47;28.70;;;18.60;99.90;;;;;;4999174;28;20225;-92
2022/09/11 06:19:30;;;;;;;35.50;29.33;;;18.60;99.90;;;;;;5003513;28;20228;-92
2022/09/11 06:22:02;;;;;;;36.27;29.30;;;18.50;99.90;;;;;;5001285;28;20215;-92
2022/09/11 06:24:34;;;;;;;37.60;28.90;;;18.50;99.90;;;;;;5001808;28;20257;-92
2022/09/11 06:27:06;;;;;;;33.80;27.40;;;18.50;99.90;;;;;;4999305;28;20210;-92
2022/09/11 06:29:39;;;;;;;37.17;29.10;;;18.40;99.90;;;;;;4999276;28;20293;-92
2022/09/11 06:32:13;;;;;;;39.43;29.70;;;18.30;99.90;;;;;;4999949;28;20240;-92
2022/09/11 06:34:44;;;;;;;34.37;28.97;;;18.30;99.90;;;;;;5001135;28;20712;-93
2022/09/11 06:37:16;;;;;;;33.67;28.17;;;18.30;99.90;;;;;;4999096;28;20233;-92
2022/09/11 06:39:48;;;;;;;37.57;29.40;;;18.20;99.90;;;;;;4998432;28;20268;-92
2022/09/11 06:42:20;;;;;;;35.47;28.80;;;18.20;99.90;;;;;;5003952;28;20269;-93
2022/09/11 06:44:54;;;;;;;36.97;29.13;;;18.20;99.90;;;;;;4998267;28;20210;-93
2022/09/11 06:47:25;;;;;;;33.00;27.37;;;18.10;99.90;;;;;;4998646;28;20208;-92
2022/09/11 06:49:57;;;;;;;37.50;28.87;;;18.10;99.90;;;;;;5001210;28;20210;-92
2022/09/11 06:52:28;;;;;;;36.13;28.77;;;18.00;99.90;;;;;;4996490;28;20245;-92
2022/09/11 06:54:59;;;;;;;41.67;29.80;;;18.00;99.90;;;;;;4997685;28;20218;-92
2022/09/11 06:57:31;;;;;;;33.20;27.33;;;18.00;99.90;;;;;;5003419;28;20215;-92
2022/09/11 07:00:14;;;;;;;36.00;29.03;;;18.00;99.90;;;;;;4997154;28;20261;-92
2022/09/11 07:02:49;;;;;;;38.63;29.70;;;17.90;99.90;;;;;;5003360;28;20220;-92
2022/09/11 07:05:23;;;;;;;37.57;28.97;;;17.90;99.90;;;;;;5011027;28;20678;-92
2022/09/11 07:07:55;;;;;;;35.10;28.77;;;17.90;99.90;;;;;;5004165;28;20268;-92
2022/09/11 07:10:27;;;;;;;35.33;29.47;;;17.80;99.90;;;;;;4999876;28;20206;-91
2022/09/11 07:13:00;;;;;;;32.57;27.33;;;17.80;99.90;;;;;;4999711;28;20710;-92
2022/09/11 07:15:33;;;;;;;34.97;29.00;;;17.80;99.90;;;;;;5002945;28;20679;-93
2022/09/11 07:18:05;;;;;;;37.73;29.00;;;17.80;99.90;;;;;;5001552;28;20643;-92
2022/09/11 07:20:39;;;;;;;33.73;29.77;;;17.80;99.90;;;;;;5001285;28;20213;-92
2022/09/11 07:23:10;;;;;;;34.83;30.07;;;17.70;99.90;;;;;;5000521;28;20210;-92
2022/09/11 07:25:42;;;;;;;35.13;29.07;;;17.70;99.90;;;;;;5001316;28;20206;-92
2022/09/11 07:28:14;;;;;;;34.93;30.30;;;17.70;99.90;;;;;;5000991;28;20218;-92
2022/09/11 07:30:47;;;;;;;32.93;29.13;;;17.70;99.90;;;;;;5001728;28;20658;-91
2022/09/11 07:33:19;;;;;;;35.93;29.53;;;17.70;99.90;;;;;;4999519;28;20217;-92
2022/09/11 07:35:51;;;;;;;37.57;30.67;;;17.60;99.90;;;;;;5003279;28;20210;-92
2022/09/11 07:38:23;;;;;;;34.70;30.90;;;17.60;99.90;;;;;;5002298;28;20745;-92
2022/09/11 07:40:55;;;;;;;34.20;29.67;;;17.60;99.90;;;;;;5003108;28;20214;-93
2022/09/11 07:43:27;;;;;;;34.73;30.07;;;17.60;99.90;;;;;;5001390;28;20221;-92
2022/09/11 07:46:01;;;;;;;32.73;29.23;;;17.60;99.90;;;;;;5002921;28;20313;-92
2022/09/11 07:48:34;;;;;;;32.70;29.33;;;17.50;99.90;;;;;;5001190;28;20206;-92
2022/09/11 07:51:08;;;;;;;35.13;29.53;;;17.50;99.90;;;;;;5000584;28;20202;-92
2022/09/11 07:53:43;;;;;;;33.30;29.00;;;17.50;99.90;;;;;;5000703;28;20210;-92
2022/09/11 07:56:16;;;;;;;33.70;30.23;;;17.50;99.90;;;;;;5001205;28;20549;-92
2022/09/11 07:58:48;;;;;;;34.43;29.37;;;17.50;99.90;;;;;;5000115;28;20274;-92
2022/09/11 08:01:24;;;;;;;32.37;28.97;;;17.40;99.90;;;;;;5000218;28;20214;-92
2022/09/11 08:03:57;;;;;;;33.50;29.90;;;17.40;99.90;;;;;;5000123;28;20256;-92
2022/09/11 08:06:30;;;;;;;33.17;29.57;;;17.30;99.90;;;;;;4999996;28;20293;-92
2022/09/11 08:09:03;;;;;;;33.47;29.77;;;17.30;99.90;;;;;;5000156;28;20226;-92
2022/09/11 08:11:38;;;;;;;34.93;30.23;;;17.30;99.90;;;;;;4998834;28;20234;-92
2022/09/11 08:14:10;;;;;;;33.97;29.73;;;17.30;99.90;;;;;;4999879;28;20228;-92
2022/09/11 08:16:43;;;;;;;36.37;30.43;;;17.30;99.90;;;;;;4999584;28;20218;-91
2022/09/11 08:19:19;;;;;;;37.50;30.87;;;17.20;99.90;;;;;;4999621;28;20269;-92
2022/09/11 08:21:52;;;;;;;38.10;30.77;;;17.20;99.90;;;;;;4998873;28;20214;-92
2022/09/11 08:24:23;;;;;;;34.13;29.97;;;17.20;99.90;;;;;;4999774;28;20212;-92
2022/09/11 08:26:55;;;;;;;34.43;30.73;;;17.10;99.90;;;;;;4999536;28;20619;-92
2022/09/11 08:29:27;;;;;;;35.80;31.97;;;17.10;99.90;;;;;;4998666;28;20221;-92
2022/09/11 08:32:01;;;;;;;37.10;33.20;;;17.00;99.90;;;;;;4999007;28;20313;-92
2022/09/11 08:34:32;;;;;;;38.60;33.40;;;17.00;99.90;;;;;;4999681;28;20217;-93
2022/09/11 08:37:03;;;;;;;36.83;32.93;;;17.00;99.90;;;;;;4999587;28;20226;-92
2022/09/11 08:39:35;;;;;;;38.03;34.13;;;16.90;99.90;;;;;;4999242;28;20301;-92
2022/09/11 08:42:10;;;;;;;39.03;34.77;;;16.90;99.90;;;;;;4999175;28;20214;-92
2022/09/11 08:44:47;;;;;;;37.37;33.60;;;16.90;99.90;;;;;;4999331;28;20224;-93
2022/09/11 08:47:23;;;;;;;37.83;33.90;;;17.00;99.90;;;;;;4999410;28;20292;-92
2022/09/11 08:50:00;;;;;;;39.13;34.77;;;17.00;99.90;;;;;;4999123;28;20213;-93
2022/09/11 08:52:34;;;;;;;39.30;35.23;;;17.00;99.90;;;;;;4987742;28;20238;-92
2022/09/11 08:55:06;;;;;;;39.03;34.50;;;17.00;99.90;;;;;;4980956;28;20319;-92
2022/09/11 08:57:43;;;;;;;39.47;34.73;;;17.00;99.90;;;;;;4980875;28;20249;-92
2022/09/11 09:00:21;;;;;;;38.40;34.30;;;16.90;99.90;;;;;;4980221;28;20207;-92
2022/09/11 09:03:11;;;;;;;39.97;35.70;;;16.90;99.90;;;;;;4978975;28;20289;-92
2022/09/11 09:05:49;;;;;;;38.90;34.70;;;16.80;99.90;;;;;;4979173;28;20213;-92
2022/09/11 09:08:36;;;;;;;40.10;35.43;;;16.80;99.90;;;;;;4980038;28;20679;-92
2022/09/11 09:11:15;;;;;;;38.73;34.43;;;16.70;99.90;;;;;;4978291;28;20215;-92
2022/09/11 09:14:01;;;;;;;38.83;34.70;;;16.70;99.90;;;;;;4978823;28;20613;-92
2022/09/11 09:16:43;;;;;;;41.10;36.23;;;16.60;99.90;;;;;;4978728;28;20211;-92
2022/09/11 09:19:25;;;;;;;37.37;33.47;;;16.60;99.90;;;;;;4979072;28;20214;-92
2022/09/11 09:22:07;;;;;;;40.70;35.53;;;16.60;99.90;;;;;;4978513;28;20207;-92
2022/09/11 09:24:47;;;;;;;44.87;38.20;;;16.60;99.90;;;;;;4978934;28;20257;-92
2022/09/11 09:27:21;;;;;;;40.63;36.50;;;16.90;99.90;;;;;;4979180;28;20211;-92
2022/09/11 09:29:55;;;;;;;42.53;38.10;;;16.80;99.90;;;;;;4978986;28;20659;-92
2022/09/11 09:32:32;;;;;;;42.43;37.83;;;16.80;99.90;;;;;;4978948;28;20317;-92
2022/09/11 09:35:15;;;;;;;44.30;39.50;;;16.70;99.90;;;;;;4979738;28;20302;-92
2022/09/11 09:37:47;;;;;;;46.50;40.93;;;16.80;99.90;;;;;;4980294;28;20250;-92
2022/09/11 09:40:21;;;;;;;45.87;40.80;;;16.80;99.90;;;;;;4978405;28;20652;-92
2022/09/11 09:43:18;;;;;;;46.67;41.60;;;16.70;99.90;;;;;;4978525;28;20306;-92
2022/09/11 09:46:13;;;;;;;47.27;42.40;;;16.70;99.90;;;;;;4978404;28;20306;-92
2022/09/11 09:48:45;;;;;;;47.83;42.60;;;16.80;99.90;;;;;;4978902;28;20490;-92
2022/09/11 09:51:19;;;;;;;48.60;42.73;;;16.80;99.90;;;;;;4978771;28;20211;-93
2022/09/11 09:53:55;;;;;;;46.87;42.17;;;16.80;99.90;;;;;;4997156;28;20240;-92
2022/09/11 09:56:26;;;;;;;47.30;42.30;;;16.80;99.90;;;;;;4998356;28;20206;-92
2022/09/11 09:59:03;;;;;;;47.67;42.70;;;16.80;99.90;;;;;;4997843;28;20670;-92
2022/09/11 10:01:48;;;;;;;44.73;39.87;;;16.80;99.90;;;;;;4997722;28;20206;-93
2022/09/11 10:04:22;;;;;;;44.00;39.17;;;16.80;99.90;;;;;;4997708;28;20651;-93
2022/09/11 10:07:09;;;;;;;40.70;35.40;;;16.80;99.90;;;;;;4998201;28;20216;-92
2022/09/11 10:09:47;;;;;;;39.20;34.47;;;17.40;99.90;;;;;;4980580;28;20309;-93
2022/09/11 10:12:23;;;;;;;37.90;33.90;;;17.80;99.90;;;;;;4977124;28;20207;-93
2022/09/11 10:14:59;;;;;;;37.37;32.57;;;18.10;99.90;;;;;;4980606;28;20206;-93
2022/09/11 10:17:35;;;;;;;42.07;33.17;;;18.20;99.90;;;;;;4978561;28;20315;-92
2022/09/11 10:20:25;;;;;;;37.90;31.30;;;18.30;99.90;;;;;;4997135;28;20209;-93
2022/09/11 10:23:26;;;;;;;38.80;32.77;;;18.60;99.90;;;;;;5000872;28;20226;-92
2022/09/11 10:26:05;;;;;;;34.90;30.90;;;18.60;99.90;;;;;;5005135;28;20211;-92
2022/09/11 10:28:37;;;;;;;37.20;29.47;;;18.50;99.90;;;;;;5014438;28;20265;-91
2022/09/11 10:31:08;;;;;;;35.87;30.20;;;18.50;99.90;;;;;;5015455;28;20206;-93
2022/09/11 10:33:42;;;;;;;32.80;29.03;;;18.60;99.90;;;;;;5014778;28;20273;-92
2022/09/11 10:36:14;;;;;;;34.63;30.23;;;18.70;99.90;;;;;;5000200;28;20230;-93
2022/09/11 10:38:50;;;;;;;35.40;29.97;;;18.90;99.90;;;;;;4999278;28;20293;-93
2022/09/11 10:41:23;;;;;;;31.83;28.57;;;19.00;99.90;;;;;;4999332;28;20655;-93
2022/09/11 10:43:59;;;;;;;33.47;29.70;;;19.10;99.90;;;;;;4996980;28;20675;-93
2022/09/11 10:46:35;;;;;;;37.37;28.10;;;19.30;99.90;;;;;;4998185;28;20233;-93
2022/09/11 10:49:19;;;;;;;33.10;27.93;;;19.40;99.90;;;;;;4998276;28;20217;-92
2022/09/11 10:52:04;;;;;;;33.53;29.37;;;19.30;99.90;;;;;;4996674;28;20206;-93
2022/09/11 10:54:52;;;;;;;39.90;29.03;;;19.50;99.90;;;;;;4997940;28;20253;-93
2022/09/11 10:57:29;;;;;;;36.23;28.67;;;19.50;99.90;;;;;;4997430;28;20213;-93
2022/09/11 11:00:07;;;;;;;30.43;27.13;;;19.50;99.90;;;;;;4997826;28;20351;-93
2022/09/11 11:02:41;;;;;;;30.23;26.77;;;19.50;99.90;;;;;;4996919;28;20202;-93
2022/09/11 11:05:23;;;;;;;32.23;25.10;;;19.60;99.90;;;;;;4997596;28;20233;-94
2022/09/11 11:08:26;;;;;;;31.13;24.70;;;19.60;99.90;;;;;;4997232;28;20740;-93
2022/09/11 11:11:14;;;;;;;29.40;23.67;;;19.60;99.90;;;;;;4984618;28;20338;-94
2022/09/11 11:14:00;;;;;;;28.77;22.77;;;19.60;99.90;;;;;;4997274;28;20644;-93
2022/09/11 11:16:45;;;;;;;31.00;22.07;;;19.50;99.90;;;;;;4998784;28;20217;-93
2022/09/11 11:19:33;;;;;;;29.93;22.93;;;19.40;99.90;;;;;;4999467;28;20218;-93
2022/09/11 11:22:15;;;;;;;34.70;22.97;;;19.40;99.90;;;;;;5003023;28;20211;-93
2022/09/11 11:24:57;;;;;;;32.50;21.77;;;19.40;99.90;;;;;;4992885;28;20214;-93
2022/09/11 11:27:52;;;;;;;29.80;22.80;;;19.50;99.90;;;;;;4989997;28;20215;-93
2022/09/11 11:33:34;;;;;;;29.93;21.60;;;19.40;99.90;;;;;;4900070;29;20250;-93
2022/09/11 11:36:08;;;;;;;31.40;22.10;;;19.40;99.90;;;;;;4910579;29;20242;-94
2022/09/11 11:38:45;;;;;;;23.47;20.50;;;19.40;99.90;;;;;;4883351;29;20607;-93
2022/09/11 11:41:23;;;;;;;27.57;20.50;;;19.40;99.90;;;;;;4883564;29;20213;-92
2022/09/11 11:43:59;;;;;;;26.43;21.83;;;19.50;99.90;;;;;;4882350;29;20301;-94
2022/09/11 11:46:37;;;;;;;28.27;21.30;;;19.50;99.90;;;;;;4886713;29;20289;-93
2022/09/11 11:49:14;;;;;;;30.90;21.77;;;19.50;99.90;;;;;;4883065;29;20214;-93
2022/09/11 11:51:53;;;;;;;28.53;21.07;;;19.50;99.90;;;;;;4884214;29;20304;-93
2022/09/11 11:54:30;;;;;;;31.20;21.47;;;19.50;99.90;;;;;;4886543;29;20238;-93
2022/09/11 11:57:08;;;;;;;27.33;21.60;;;19.50;99.90;;;;;;4886962;29;20273;-93
2022/09/11 11:59:50;;;;;;;25.33;21.60;;;19.60;99.90;;;;;;4883163;29;20217;-93
2022/09/11 12:02:25;;;;;;;28.73;21.30;;;19.50;99.90;;;;;;4883688;29;20210;-93
2022/09/11 12:05:00;;;;;;;25.83;20.27;;;19.60;99.90;;;;;;4887022;29;20258;-93
2022/09/11 12:07:35;;;;;;;28.53;20.20;;;19.50;99.90;;;;;;4885973;29;20224;-94
2022/09/11 12:10:09;;;;;;;29.90;21.07;;;19.50;99.90;;;;;;4885704;29;20285;-93
2022/09/11 12:12:48;;;;;;;28.83;20.60;;;19.50;99.90;;;;;;4885327;29;20222;-94
2022/09/11 12:15:23;;;;;;;27.77;21.07;;;19.50;99.90;;;;;;4885847;29;20248;-93
2022/09/11 12:18:03;;;;;;;25.77;20.47;;;19.40;99.90;;;;;;4885791;29;20296;-93
2022/09/11 12:20:40;;;;;;;29.20;20.90;;;19.30;99.90;;;;;;4886166;29;20214;-91
2022/09/11 12:23:35;;;;;;;32.93;21.17;;;19.30;99.90;;;;;;4885987;29;20210;-94
2022/09/11 12:26:19;;;;;;;31.47;21.23;;;19.20;99.90;;;;;;4888011;29;20215;-94
2022/09/11 12:28:51;;;;;;;26.93;20.50;;;19.20;99.90;;;;;;4886026;29;20213;-94
2022/09/11 12:31:26;;;;;;;29.47;19.63;;;19.20;99.90;;;;;;4885867;29;20214;-94
2022/09/11 12:33:58;;;;;;;28.77;19.87;;;19.40;99.90;;;;;;4886273;29;20241;-94
2022/09/11 12:36:49;;;;;;;28.30;19.60;;;19.30;99.90;;;;;;4892200;29;20249;-91
2022/09/11 12:39:27;;;;;;;26.60;19.67;;;19.20;99.90;;;;;;4885966;29;20230;-91
2022/09/11 12:42:30;;;;;;;28.27;20.80;;;19.20;99.90;;;;;;4886427;29;20573;-91
2022/09/11 12:45:03;;;;;;;32.07;20.20;;;19.10;99.90;;;;;;4901699;29;20253;-91
2022/09/11 12:47:38;;;;;;;27.47;20.07;;;19.10;99.90;;;;;;4902616;29;20262;-93
2022/09/11 12:50:19;;;;;;;28.13;20.00;;;19.00;99.90;;;;;;4903732;29;20229;-93
2022/09/11 12:52:56;;;;;;;26.00;20.07;;;19.00;99.90;;;;;;4903081;29;20258;-93
2022/09/11 12:55:34;;;;;;;32.43;21.73;;;18.90;99.90;;;;;;4902776;29;20228;-93
2022/09/11 12:58:08;;;;;;;26.23;20.03;;;18.90;99.90;;;;;;4903802;29;20228;-93
2022/09/11 13:00:44;;;;;;;30.63;21.53;;;18.90;99.90;;;;;;4903234;29;20197;-93
2022/09/11 13:03:23;;;;;;;29.83;22.57;;;18.80;99.90;;;;;;4902275;29;20202;-92
2022/09/11 13:05:58;;;;;;;28.80;21.73;;;18.80;99.90;;;;;;4888722;29;20221;-92
2022/09/11 13:08:33;;;;;;;29.20;22.80;;;18.70;99.90;;;;;;4888592;29;20317;-92
2022/09/11 13:11:40;;;;;;;26.73;21.17;;;18.80;99.90;;;;;;4888859;29;20229;-93
2022/09/11 13:14:54;;;;;;;26.63;21.87;;;18.80;99.90;;;;;;4882861;29;20711;-92
2022/09/11 13:17:29;;;;;;;29.47;21.27;;;18.80;99.90;;;;;;4883932;29;20220;-93
2022/09/11 13:20:22;;;;;;;26.40;21.13;;;18.80;99.90;;;;;;4894047;29;20309;-92
2022/09/11 13:22:53;;;;;;;30.07;21.07;;;18.80;99.90;;;;;;4888253;29;20224;-92
2022/09/11 13:25:30;;;;;;;28.93;21.00;;;18.80;99.90;;;;;;4887809;29;20241;-92
2022/09/11 13:28:02;;;;;;;28.53;21.50;;;18.90;99.90;;;;;;4886086;29;20218;-91
2022/09/11 13:30:34;;;;;;;27.57;20.00;;;19.30;99.90;;;;;;4887900;29;20237;-92
2022/09/11 13:33:08;;;;;;;26.53;21.10;;;19.50;99.90;;;;;;4886038;29;20664;-92
2022/09/11 13:35:47;;;;;;;28.27;20.67;;;19.60;99.90;;;;;;4886511;29;20234;-92
2022/09/11 13:38:22;;;;;;;32.10;20.47;;;19.60;99.90;;;;;;4886790;29;20305;-92
2022/09/11 13:40:57;;;;;;;25.87;21.40;;;19.70;99.90;;;;;;4886070;29;20222;-92
2022/09/11 13:43:31;;;;;;;27.70;20.73;;;19.80;99.90;;;;;;4886170;29;20229;-91
2022/09/11 13:46:22;;;;;;;32.83;19.83;;;19.70;99.90;;;;;;4886954;29;20277;-91
2022/09/11 13:48:57;;;;;;;27.10;19.20;;;19.70;99.90;;;;;;4886344;29;20214;-92
2022/09/11 13:51:32;;;;;;;27.43;19.13;;;19.70;99.90;;;;;;4885662;29;20216;-96
2022/09/11 13:54:12;;;;;;;26.60;18.80;;;19.60;99.90;;;;;;4884635;29;20226;-92
2022/09/11 13:57:06;;;;;;;31.43;19.07;;;19.50;99.90;;;;;;4885419;29;20222;-93
2022/09/11 13:59:45;;;;;;;28.07;18.50;;;19.50;99.90;;;;;;4884843;29;20214;-92
2022/09/11 14:02:44;;;;;;;24.53;18.13;;;19.50;99.90;;;;;;4885502;29;20295;-92
2022/09/11 14:05:19;;;;;;;28.30;18.17;;;19.50;99.90;;;;;;4882058;29;20210;-93
2022/09/11 14:08:03;;;;;;;26.43;18.53;;;19.50;99.90;;;;;;4885286;29;20206;-93
2022/09/11 14:10:39;;;;;;;27.47;18.37;;;19.50;99.90;;;;;;4885353;29;20305;-92